sensor_id;sensor_type;location;lat;lon;timestamp;pressure;altitude;pressure_sealevel;temperature;humidity
69796;BME280;57073;45.650;9.612;2022-12-18T00:04:28;100284.09;;;7.42;80.04
69796;BME280;57073;45.650;9.612;2022-12-18T00:14:28;100306.66;;;7.40;80.57
69796;BME280;57073;45.650;9.612;2022-12-18T00:24:28;100318.19;;;7.24;80.78
69796;BME280;57073;45.650;9.612;2022-12-18T00:34:29;100309.03;;;7.18;81.43
69796;BME280;57073;45.650;9.612;2022-12-18T00:44:29;100334.06;;;7.17;82.10
69796;BME280;57073;45.650;9.612;2022-12-18T00:54:30;100346.91;;;7.22;81.38
69796;BME280;57073;45.650;9.612;2022-12-18T01:04:33;100361.91;;;7.23;81.30
69796;BME280;57073;45.650;9.612;2022-12-18T01:14:34;100372.94;;;7.12;82.28
69796;BME280;57073;45.650;9.612;2022-12-18T01:24:34;100385.59;;;7.26;82.23
69796;BME280;57073;45.650;9.612;2022-12-18T01:34:36;100404.63;;;7.23;81.22
69796;BME280;57073;45.650;9.612;2022-12-18T01:45:01;100415.47;;;7.21;82.02
69796;BME280;57073;45.650;9.612;2022-12-18T01:55:03;100432.16;;;7.15;81.56
69796;BME280;57073;45.650;9.612;2022-12-18T02:05:05;100440.00;;;7.17;81.19
69796;BME280;57073;45.650;9.612;2022-12-18T02:15:19;100439.50;;;7.13;81.38
69796;BME280;57073;45.650;9.612;2022-12-18T02:36:07;100448.69;;;7.19;81.17
69796;BME280;57073;45.650;9.612;2022-12-18T02:56:38;100446.00;;;7.02;80.22
69796;BME280;57073;45.650;9.612;2022-12-18T03:06:44;100457.03;;;7.24;79.88
69796;BME280;57073;45.650;9.612;2022-12-18T03:16:49;100471.03;;;7.09;81.02
69796;BME280;57073;45.650;9.612;2022-12-18T03:26:58;100486.53;;;6.98;81.17
69796;BME280;57073;45.650;9.612;2022-12-18T03:37:01;100487.69;;;6.95;81.82
69796;BME280;57073;45.650;9.612;2022-12-18T03:47:15;100490.38;;;6.95;82.77
69796;BME280;57073;45.650;9.612;2022-12-18T03:57:19;100492.03;;;6.88;82.05
69796;BME280;57073;45.650;9.612;2022-12-18T04:07:21;100498.03;;;6.82;82.56
69796;BME280;57073;45.650;9.612;2022-12-18T04:17:22;100526.34;;;6.83;81.65
69796;BME280;57073;45.650;9.612;2022-12-18T04:27:22;100516.34;;;6.85;81.94
69796;BME280;57073;45.650;9.612;2022-12-18T04:37:23;100527.38;;;6.82;82.93
69796;BME280;57073;45.650;9.612;2022-12-18T04:47:23;100550.41;;;6.99;81.33
69796;BME280;57073;45.650;9.612;2022-12-18T04:57:24;100552.66;;;7.20;80.27
69796;BME280;57073;45.650;9.612;2022-12-18T05:07:24;100566.63;;;7.14;79.60
69796;BME280;57073;45.650;9.612;2022-12-18T05:17:24;100599.22;;;7.26;78.46
69796;BME280;57073;45.650;9.612;2022-12-18T05:27:25;100598.38;;;7.34;78.67
69796;BME280;57073;45.650;9.612;2022-12-18T05:37:25;100603.38;;;7.28;77.89
69796;BME280;57073;45.650;9.612;2022-12-18T05:47:26;100617.34;;;7.14;76.41
69796;BME280;57073;45.650;9.612;2022-12-18T05:57:27;100623.81;;;7.03;76.21
69796;BME280;57073;45.650;9.612;2022-12-18T06:07:28;100633.88;;;7.09;76.59
69796;BME280;57073;45.650;9.612;2022-12-18T06:17:32;100665.53;;;6.96;76.93
69796;BME280;57073;45.650;9.612;2022-12-18T06:27:32;100663.47;;;6.90;76.35
69796;BME280;57073;45.650;9.612;2022-12-18T06:37:33;100663.47;;;6.90;76.72
69796;BME280;57073;45.650;9.612;2022-12-18T06:47:34;100686.31;;;6.84;77.56
69796;BME280;57073;45.650;9.612;2022-12-18T06:57:34;100688.91;;;6.76;78.00
69796;BME280;57073;45.650;9.612;2022-12-18T07:07:34;100703.28;;;6.83;77.98
69796;BME280;57073;45.650;9.612;2022-12-18T07:17:35;100724.63;;;6.83;78.75
69796;BME280;57073;45.650;9.612;2022-12-18T07:27:35;100745.84;;;6.85;78.48
69796;BME280;57073;45.650;9.612;2022-12-18T07:37:36;100766.50;;;6.83;78.96
69796;BME280;57073;45.650;9.612;2022-12-18T07:47:36;100781.53;;;6.84;79.01
69796;BME280;57073;45.650;9.612;2022-12-18T07:57:36;100808.53;;;6.81;79.70
69796;BME280;57073;45.650;9.612;2022-12-18T08:07:37;100820.94;;;6.90;79.25
69796;BME280;57073;45.650;9.612;2022-12-18T08:17:38;100837.00;;;6.98;80.15
69796;BME280;57073;45.650;9.612;2022-12-18T08:27:38;100840.97;;;6.94;79.80
69796;BME280;57073;45.650;9.612;2022-12-18T08:37:38;100853.56;;;7.02;79.07
69796;BME280;57073;45.650;9.612;2022-12-18T08:47:39;100863.34;;;6.57;82.78
69796;BME280;57073;45.650;9.612;2022-12-18T08:57:39;100862.91;;;6.62;81.95
69796;BME280;57073;45.650;9.612;2022-12-18T09:07:39;100870.03;;;6.79;81.61
69796;BME280;57073;45.650;9.612;2022-12-18T09:17:40;100888.31;;;7.10;80.63
69796;BME280;57073;45.650;9.612;2022-12-18T09:27:40;100891.31;;;6.89;81.33
69796;BME280;57073;45.650;9.612;2022-12-18T09:37:40;100903.31;;;7.29;79.11
69796;BME280;57073;45.650;9.612;2022-12-18T09:47:43;100903.72;;;7.42;79.51
69796;BME280;57073;45.650;9.612;2022-12-18T09:57:48;100899.22;;;7.69;78.17
69796;BME280;57073;45.650;9.612;2022-12-18T10:18:10;100879.31;;;8.06;74.71
69796;BME280;57073;45.650;9.612;2022-12-18T10:28:16;100898.19;;;8.04;72.81
69796;BME280;57073;45.650;9.612;2022-12-18T10:48:19;100878.50;;;8.05;69.06
69796;BME280;57073;45.650;9.612;2022-12-18T10:58:31;100878.75;;;8.29;66.77
69796;BME280;57073;45.650;9.612;2022-12-18T11:08:32;100880.56;;;8.20;66.21
69796;BME280;57073;45.650;9.612;2022-12-18T11:18:34;100874.38;;;8.28;63.59
69796;BME280;57073;45.650;9.612;2022-12-18T11:28:46;100889.84;;;8.42;64.70
69796;BME280;57073;45.650;9.612;2022-12-18T11:38:47;100873.91;;;7.90;64.66
69796;BME280;57073;45.650;9.612;2022-12-18T11:48:58;100862.41;;;8.48;66.65
69796;BME280;57073;45.650;9.612;2022-12-18T11:59:20;100859.78;;;8.73;66.40
69796;BME280;57073;45.650;9.612;2022-12-18T12:09:41;100841.53;;;8.68;65.53
69796;BME280;57073;45.650;9.612;2022-12-18T12:20:05;100828.81;;;8.78;65.33
69796;BME280;57073;45.650;9.612;2022-12-18T12:30:20;100821.28;;;8.66;65.36
69796;BME280;57073;45.650;9.612;2022-12-18T12:40:26;100809.44;;;8.60;64.97
69796;BME280;57073;45.650;9.612;2022-12-18T12:50:27;100813.09;;;8.59;64.08
69796;BME280;57073;45.650;9.612;2022-12-18T13:00:31;100803.22;;;8.51;63.97
69796;BME280;57073;45.650;9.612;2022-12-18T13:10:37;100811.72;;;8.38;65.54
69796;BME280;57073;45.650;9.612;2022-12-18T13:30:50;100800.72;;;8.50;64.95
69796;BME280;57073;45.650;9.612;2022-12-18T13:40:54;100793.03;;;8.55;64.99
69796;BME280;57073;45.650;9.612;2022-12-18T13:50:59;100793.88;;;8.47;64.66
69796;BME280;57073;45.650;9.612;2022-12-18T14:01:00;100784.50;;;8.51;65.74
69796;BME280;57073;45.650;9.612;2022-12-18T14:11:04;100791.03;;;8.49;65.49
69796;BME280;57073;45.650;9.612;2022-12-18T14:21:06;100799.22;;;8.47;65.21
69796;BME280;57073;45.650;9.612;2022-12-18T14:31:20;100799.06;;;8.49;66.91
69796;BME280;57073;45.650;9.612;2022-12-18T14:41:22;100801.22;;;8.45;66.87
69796;BME280;57073;45.650;9.612;2022-12-18T14:51:28;100818.72;;;8.31;69.82
69796;BME280;57073;45.650;9.612;2022-12-18T15:01:35;100832.91;;;8.32;70.83
69796;BME280;57073;45.650;9.612;2022-12-18T15:21:42;100836.34;;;7.99;73.84
69796;BME280;57073;45.650;9.612;2022-12-18T15:31:43;100826.72;;;7.72;75.13
69796;BME280;57073;45.650;9.612;2022-12-18T15:41:45;100856.78;;;7.66;75.89
69796;BME280;57073;45.650;9.612;2022-12-18T15:52:05;100859.53;;;7.48;75.91
69796;BME280;57073;45.650;9.612;2022-12-18T16:02:14;100867.53;;;7.48;76.49
69796;BME280;57073;45.650;9.612;2022-12-18T16:12:21;100859.00;;;7.44;76.69
69796;BME280;57073;45.650;9.612;2022-12-18T16:22:23;100868.84;;;7.44;75.57
69796;BME280;57073;45.650;9.612;2022-12-18T16:32:24;100870.22;;;7.22;75.69
69796;BME280;57073;45.650;9.612;2022-12-18T16:42:25;100876.31;;;7.14;76.23
69796;BME280;57073;45.650;9.612;2022-12-18T16:52:25;100878.16;;;7.14;77.14
69796;BME280;57073;45.650;9.612;2022-12-18T17:02:26;100887.25;;;7.03;78.00
69796;BME280;57073;45.650;9.612;2022-12-18T17:12:27;100905.34;;;6.91;78.56
69796;BME280;57073;45.650;9.612;2022-12-18T17:22:27;100896.81;;;6.51;79.92
69796;BME280;57073;45.650;9.612;2022-12-18T17:32:28;100899.19;;;6.55;80.61
69796;BME280;57073;45.650;9.612;2022-12-18T17:42:28;100900.81;;;6.38;80.80
69796;BME280;57073;45.650;9.612;2022-12-18T17:52:28;100904.81;;;6.51;81.12
69796;BME280;57073;45.650;9.612;2022-12-18T18:02:29;100915.75;;;6.48;81.08
69796;BME280;57073;45.650;9.612;2022-12-18T18:12:29;100921.75;;;6.60;80.22
69796;BME280;57073;45.650;9.612;2022-12-18T18:22:48;100928.41;;;6.46;81.26
69796;BME280;57073;45.650;9.612;2022-12-18T18:32:48;100915.19;;;6.27;81.18
69796;BME280;57073;45.650;9.612;2022-12-18T18:42:49;100920.03;;;6.41;80.82
69796;BME280;57073;45.650;9.612;2022-12-18T18:52:50;100934.91;;;6.44;81.95
69796;BME280;57073;45.650;9.612;2022-12-18T19:02:50;100940.59;;;6.49;80.89
69796;BME280;57073;45.650;9.612;2022-12-18T19:12:50;100940.84;;;6.56;81.25
69796;BME280;57073;45.650;9.612;2022-12-18T19:23:09;100942.56;;;6.75;79.57
69796;BME280;57073;45.650;9.612;2022-12-18T19:33:10;100942.22;;;6.78;79.24
69796;BME280;57073;45.650;9.612;2022-12-18T19:43:10;100950.63;;;6.83;78.80
69796;BME280;57073;45.650;9.612;2022-12-18T19:53:11;100946.88;;;6.76;78.77
69796;BME280;57073;45.650;9.612;2022-12-18T20:03:11;100989.66;;;6.66;79.63
69796;BME280;57073;45.650;9.612;2022-12-18T20:13:11;100991.97;;;6.79;78.41
69796;BME280;57073;45.650;9.612;2022-12-18T20:23:12;100997.59;;;6.76;78.38
69796;BME280;57073;45.650;9.612;2022-12-18T20:33:13;101000.88;;;6.69;79.08
69796;BME280;57073;45.650;9.612;2022-12-18T20:43:14;101006.22;;;6.60;78.73
69796;BME280;57073;45.650;9.612;2022-12-18T20:53:14;100996.03;;;6.55;79.14
69796;BME280;57073;45.650;9.612;2022-12-18T21:03:14;100994.16;;;6.38;79.58
69796;BME280;57073;45.650;9.612;2022-12-18T21:13:15;100996.25;;;6.44;79.30
69796;BME280;57073;45.650;9.612;2022-12-18T21:23:15;101012.53;;;6.41;80.14
69796;BME280;57073;45.650;9.612;2022-12-18T21:33:15;101022.09;;;6.33;80.63
69796;BME280;57073;45.650;9.612;2022-12-18T21:43:16;101009.31;;;6.37;80.56
69796;BME280;57073;45.650;9.612;2022-12-18T21:53:35;101004.34;;;6.14;78.75
69796;BME280;57073;45.650;9.612;2022-12-18T22:03:35;101000.09;;;6.22;79.19
69796;BME280;57073;45.650;9.612;2022-12-18T22:13:36;101001.50;;;6.26;79.04
69796;BME280;57073;45.650;9.612;2022-12-18T22:23:36;101024.66;;;6.25;78.28
69796;BME280;57073;45.650;9.612;2022-12-18T22:33:36;101019.41;;;6.06;77.27
69796;BME280;57073;45.650;9.612;2022-12-18T22:43:36;101006.34;;;6.03;75.69
69796;BME280;57073;45.650;9.612;2022-12-18T22:53:37;101008.47;;;5.89;74.29
69796;BME280;57073;45.650;9.612;2022-12-18T23:03:37;101008.34;;;5.81;74.40
69796;BME280;57073;45.650;9.612;2022-12-18T23:13:38;101009.22;;;5.72;73.96
69796;BME280;57073;45.650;9.612;2022-12-18T23:23:39;101004.03;;;5.70;76.58
69796;BME280;57073;45.650;9.612;2022-12-18T23:33:40;100981.28;;;5.76;75.58
69796;BME280;57073;45.650;9.612;2022-12-18T23:43:40;100979.06;;;5.71;76.37
69796;BME280;57073;45.650;9.612;2022-12-18T23:53:41;100989.72;;;5.71;76.62
